sensor_id;sensor_type;location;lat;lon;timestamp;P1;durP1;ratioP1;P2;durP2;ratioP2
42294;SDS011;27947;47.556;18.718;2023-05-18T00:02:01;7.07;;;2.72;;
42294;SDS011;27947;47.556;18.718;2023-05-18T00:04:28;3.90;;;2.08;;
42294;SDS011;27947;47.556;18.718;2023-05-18T00:06:53;5.47;;;2.30;;
42294;SDS011;27947;47.556;18.718;2023-05-18T00:09:25;4.88;;;1.90;;
42294;SDS011;27947;47.556;18.718;2023-05-18T00:11:51;3.60;;;2.00;;
42294;SDS011;27947;47.556;18.718;2023-05-18T00:14:17;4.97;;;2.17;;
42294;SDS011;27947;47.556;18.718;2023-05-18T00:16:42;2.70;;;2.13;;
42294;SDS011;27947;47.556;18.718;2023-05-18T00:19:08;4.65;;;2.28;;
42294;SDS011;27947;47.556;18.718;2023-05-18T00:21:33;5.07;;;1.95;;
42294;SDS011;27947;47.556;18.718;2023-05-18T00:23:59;3.50;;;2.03;;
42294;SDS011;27947;47.556;18.718;2023-05-18T00:26:24;6.03;;;2.10;;
42294;SDS011;27947;47.556;18.718;2023-05-18T00:28:51;2.95;;;2.10;;
42294;SDS011;27947;47.556;18.718;2023-05-18T00:31:16;8.27;;;2.30;;
42294;SDS011;27947;47.556;18.718;2023-05-18T00:33:41;5.35;;;2.20;;
42294;SDS011;27947;47.556;18.718;2023-05-18T00:36:09;5.30;;;1.90;;
42294;SDS011;27947;47.556;18.718;2023-05-18T00:38:35;3.75;;;2.35;;
42294;SDS011;27947;47.556;18.718;2023-05-18T00:41:00;3.38;;;2.40;;
42294;SDS011;27947;47.556;18.718;2023-05-18T00:43:26;7.38;;;2.28;;
42294;SDS011;27947;47.556;18.718;2023-05-18T00:45:51;10.90;;;2.45;;
42294;SDS011;27947;47.556;18.718;2023-05-18T00:48:17;5.95;;;2.20;;
42294;SDS011;27947;47.556;18.718;2023-05-18T00:50:42;6.60;;;2.30;;
42294;SDS011;27947;47.556;18.718;2023-05-18T00:53:07;5.78;;;2.45;;
42294;SDS011;27947;47.556;18.718;2023-05-18T00:55:35;7.97;;;2.42;;
42294;SDS011;27947;47.556;18.718;2023-05-18T00:58:00;4.57;;;1.90;;
42294;SDS011;27947;47.556;18.718;2023-05-18T01:00:27;4.60;;;2.10;;
42294;SDS011;27947;47.556;18.718;2023-05-18T01:02:53;3.80;;;2.20;;
42294;SDS011;27947;47.556;18.718;2023-05-18T01:05:18;3.35;;;1.80;;
42294;SDS011;27947;47.556;18.718;2023-05-18T01:07:46;7.45;;;1.92;;
42294;SDS011;27947;47.556;18.718;2023-05-18T01:10:12;4.10;;;1.98;;
42294;SDS011;27947;47.556;18.718;2023-05-18T01:12:46;3.85;;;2.22;;
42294;SDS011;27947;47.556;18.718;2023-05-18T01:15:17;5.95;;;2.00;;
42294;SDS011;27947;47.556;18.718;2023-05-18T01:22:48;6.40;;;1.90;;
42294;SDS011;27947;47.556;18.718;2023-05-18T01:25:20;5.35;;;2.10;;
42294;SDS011;27947;47.556;18.718;2023-05-18T01:27:50;3.88;;;2.00;;
42294;SDS011;27947;47.556;18.718;2023-05-18T01:30:20;5.55;;;2.20;;
42294;SDS011;27947;47.556;18.718;2023-05-18T01:32:46;6.97;;;2.20;;
42294;SDS011;27947;47.556;18.718;2023-05-18T01:35:11;4.90;;;2.17;;
42294;SDS011;27947;47.556;18.718;2023-05-18T01:37:37;5.75;;;2.30;;
42294;SDS011;27947;47.556;18.718;2023-05-18T01:40:03;5.25;;;2.22;;
42294;SDS011;27947;47.556;18.718;2023-05-18T01:42:29;3.45;;;2.22;;
42294;SDS011;27947;47.556;18.718;2023-05-18T01:45:01;3.42;;;2.15;;
42294;SDS011;27947;47.556;18.718;2023-05-18T01:47:28;6.63;;;2.40;;
42294;SDS011;27947;47.556;18.718;2023-05-18T01:50:14;4.97;;;1.95;;
42294;SDS011;27947;47.556;18.718;2023-05-18T01:52:42;3.70;;;2.10;;
42294;SDS011;27947;47.556;18.718;2023-05-18T01:55:09;7.20;;;2.40;;
42294;SDS011;27947;47.556;18.718;2023-05-18T01:57:35;5.85;;;2.78;;
42294;SDS011;27947;47.556;18.718;2023-05-18T02:00:00;5.60;;;2.33;;
42294;SDS011;27947;47.556;18.718;2023-05-18T02:02:41;4.50;;;2.35;;
42294;SDS011;27947;47.556;18.718;2023-05-18T02:05:07;3.65;;;2.70;;
42294;SDS011;27947;47.556;18.718;2023-05-18T02:07:36;6.43;;;2.50;;
42294;SDS011;27947;47.556;18.718;2023-05-18T02:10:02;6.95;;;2.60;;
42294;SDS011;27947;47.556;18.718;2023-05-18T02:12:28;3.95;;;2.60;;
42294;SDS011;27947;47.556;18.718;2023-05-18T02:14:54;5.40;;;2.78;;
42294;SDS011;27947;47.556;18.718;2023-05-18T02:17:22;3.22;;;2.45;;
42294;SDS011;27947;47.556;18.718;2023-05-18T02:19:50;4.22;;;2.50;;
42294;SDS011;27947;47.556;18.718;2023-05-18T02:22:15;3.83;;;2.63;;
42294;SDS011;27947;47.556;18.718;2023-05-18T02:24:41;5.28;;;2.83;;
42294;SDS011;27947;47.556;18.718;2023-05-18T02:27:06;4.53;;;2.42;;
42294;SDS011;27947;47.556;18.718;2023-05-18T02:29:32;3.50;;;2.53;;
42294;SDS011;27947;47.556;18.718;2023-05-18T02:31:57;3.72;;;2.55;;
42294;SDS011;27947;47.556;18.718;2023-05-18T02:34:24;4.22;;;3.17;;
42294;SDS011;27947;47.556;18.718;2023-05-18T02:36:51;3.75;;;2.70;;
42294;SDS011;27947;47.556;18.718;2023-05-18T02:39:17;4.80;;;2.85;;
42294;SDS011;27947;47.556;18.718;2023-05-18T02:41:42;6.80;;;2.88;;
42294;SDS011;27947;47.556;18.718;2023-05-18T02:44:08;4.35;;;2.60;;
42294;SDS011;27947;47.556;18.718;2023-05-18T02:46:33;5.30;;;2.97;;
42294;SDS011;27947;47.556;18.718;2023-05-18T02:48:59;5.93;;;3.13;;
42294;SDS011;27947;47.556;18.718;2023-05-18T02:51:24;3.70;;;2.83;;
42294;SDS011;27947;47.556;18.718;2023-05-18T02:53:51;6.25;;;3.45;;
42294;SDS011;27947;47.556;18.718;2023-05-18T02:56:17;5.03;;;3.03;;
42294;SDS011;27947;47.556;18.718;2023-05-18T02:58:48;4.10;;;2.88;;
42294;SDS011;27947;47.556;18.718;2023-05-18T03:01:22;5.55;;;2.92;;
42294;SDS011;27947;47.556;18.718;2023-05-18T03:03:54;4.15;;;3.00;;
42294;SDS011;27947;47.556;18.718;2023-05-18T03:06:21;4.32;;;3.22;;
42294;SDS011;27947;47.556;18.718;2023-05-18T03:08:51;6.55;;;3.00;;
42294;SDS011;27947;47.556;18.718;2023-05-18T03:11:20;6.75;;;3.40;;
42294;SDS011;27947;47.556;18.718;2023-05-18T03:13:46;4.57;;;3.03;;
42294;SDS011;27947;47.556;18.718;2023-05-18T03:16:13;4.57;;;3.30;;
42294;SDS011;27947;47.556;18.718;2023-05-18T03:18:39;6.90;;;3.15;;
42294;SDS011;27947;47.556;18.718;2023-05-18T03:21:04;5.10;;;2.90;;
42294;SDS011;27947;47.556;18.718;2023-05-18T03:23:30;7.65;;;3.67;;
42294;SDS011;27947;47.556;18.718;2023-05-18T03:25:55;4.25;;;3.15;;
42294;SDS011;27947;47.556;18.718;2023-05-18T03:28:24;5.22;;;3.58;;
42294;SDS011;27947;47.556;18.718;2023-05-18T03:30:50;4.57;;;3.58;;
42294;SDS011;27947;47.556;18.718;2023-05-18T03:33:15;8.18;;;3.53;;
42294;SDS011;27947;47.556;18.718;2023-05-18T03:35:41;9.60;;;3.25;;
42294;SDS011;27947;47.556;18.718;2023-05-18T03:38:07;6.43;;;3.60;;
42294;SDS011;27947;47.556;18.718;2023-05-18T03:40:34;5.75;;;3.38;;
42294;SDS011;27947;47.556;18.718;2023-05-18T03:43:00;5.97;;;3.65;;
42294;SDS011;27947;47.556;18.718;2023-05-18T03:45:26;5.40;;;3.67;;
42294;SDS011;27947;47.556;18.718;2023-05-18T03:47:51;5.43;;;3.47;;
42294;SDS011;27947;47.556;18.718;2023-05-18T03:50:17;7.30;;;3.50;;
42294;SDS011;27947;47.556;18.718;2023-05-18T03:52:42;4.28;;;3.25;;
42294;SDS011;27947;47.556;18.718;2023-05-18T03:55:09;4.60;;;3.40;;
42294;SDS011;27947;47.556;18.718;2023-05-18T03:57:34;5.72;;;3.78;;
42294;SDS011;27947;47.556;18.718;2023-05-18T04:00:01;5.80;;;3.25;;
42294;SDS011;27947;47.556;18.718;2023-05-18T04:02:31;4.82;;;2.92;;
42294;SDS011;27947;47.556;18.718;2023-05-18T04:04:57;5.25;;;3.53;;
42294;SDS011;27947;47.556;18.718;2023-05-18T04:07:22;5.43;;;3.42;;
42294;SDS011;27947;47.556;18.718;2023-05-18T04:09:49;6.50;;;3.50;;
42294;SDS011;27947;47.556;18.718;2023-05-18T04:12:14;5.10;;;3.80;;
42294;SDS011;27947;47.556;18.718;2023-05-18T04:14:40;8.35;;;3.67;;
42294;SDS011;27947;47.556;18.718;2023-05-18T04:17:14;5.93;;;3.35;;
42294;SDS011;27947;47.556;18.718;2023-05-18T04:19:39;4.63;;;3.53;;
42294;SDS011;27947;47.556;18.718;2023-05-18T04:22:06;4.00;;;3.55;;
42294;SDS011;27947;47.556;18.718;2023-05-18T04:24:32;5.28;;;3.55;;
42294;SDS011;27947;47.556;18.718;2023-05-18T04:27:00;7.10;;;3.45;;
42294;SDS011;27947;47.556;18.718;2023-05-18T04:29:27;5.10;;;3.72;;
42294;SDS011;27947;47.556;18.718;2023-05-18T04:31:53;4.75;;;3.70;;
42294;SDS011;27947;47.556;18.718;2023-05-18T04:34:28;5.28;;;3.70;;
42294;SDS011;27947;47.556;18.718;2023-05-18T04:36:54;5.60;;;3.70;;
42294;SDS011;27947;47.556;18.718;2023-05-18T04:39:21;6.57;;;3.40;;
42294;SDS011;27947;47.556;18.718;2023-05-18T04:41:48;5.47;;;3.13;;
42294;SDS011;27947;47.556;18.718;2023-05-18T04:44:15;6.35;;;3.63;;
42294;SDS011;27947;47.556;18.718;2023-05-18T04:46:42;5.30;;;3.67;;
42294;SDS011;27947;47.556;18.718;2023-05-18T04:49:12;4.80;;;3.33;;
42294;SDS011;27947;47.556;18.718;2023-05-18T04:51:38;5.65;;;3.70;;
42294;SDS011;27947;47.556;18.718;2023-05-18T04:54:04;6.68;;;3.72;;
42294;SDS011;27947;47.556;18.718;2023-05-18T04:56:30;7.43;;;3.45;;
42294;SDS011;27947;47.556;18.718;2023-05-18T04:58:55;4.05;;;3.22;;
42294;SDS011;27947;47.556;18.718;2023-05-18T05:01:23;3.60;;;3.08;;
42294;SDS011;27947;47.556;18.718;2023-05-18T05:03:49;4.05;;;3.33;;
42294;SDS011;27947;47.556;18.718;2023-05-18T05:06:15;7.25;;;3.30;;
42294;SDS011;27947;47.556;18.718;2023-05-18T05:08:40;4.93;;;3.15;;
42294;SDS011;27947;47.556;18.718;2023-05-18T05:11:06;4.90;;;3.72;;
42294;SDS011;27947;47.556;18.718;2023-05-18T05:13:31;4.80;;;3.33;;
42294;SDS011;27947;47.556;18.718;2023-05-18T05:15:58;6.03;;;3.05;;
42294;SDS011;27947;47.556;18.718;2023-05-18T05:18:24;5.15;;;3.00;;
42294;SDS011;27947;47.556;18.718;2023-05-18T05:20:49;6.03;;;3.20;;
42294;SDS011;27947;47.556;18.718;2023-05-18T05:23:15;5.80;;;3.45;;
42294;SDS011;27947;47.556;18.718;2023-05-18T05:25:41;5.18;;;3.28;;
42294;SDS011;27947;47.556;18.718;2023-05-18T05:28:07;4.53;;;3.38;;
42294;SDS011;27947;47.556;18.718;2023-05-18T05:30:32;4.05;;;3.20;;
42294;SDS011;27947;47.556;18.718;2023-05-18T05:32:57;7.47;;;3.70;;
42294;SDS011;27947;47.556;18.718;2023-05-18T05:35:24;6.47;;;3.85;;
42294;SDS011;27947;47.556;18.718;2023-05-18T05:37:50;4.75;;;3.75;;
42294;SDS011;27947;47.556;18.718;2023-05-18T05:40:15;5.53;;;3.40;;
42294;SDS011;27947;47.556;18.718;2023-05-18T05:42:43;6.72;;;3.42;;
42294;SDS011;27947;47.556;18.718;2023-05-18T05:45:09;4.15;;;3.22;;
42294;SDS011;27947;47.556;18.718;2023-05-18T05:47:47;6.75;;;3.22;;
42294;SDS011;27947;47.556;18.718;2023-05-18T05:50:15;5.93;;;3.08;;
42294;SDS011;27947;47.556;18.718;2023-05-18T05:52:40;4.53;;;2.85;;
42294;SDS011;27947;47.556;18.718;2023-05-18T05:55:06;5.32;;;3.55;;
42294;SDS011;27947;47.556;18.718;2023-05-18T05:57:31;6.07;;;3.28;;
42294;SDS011;27947;47.556;18.718;2023-05-18T05:59:58;6.60;;;3.25;;
42294;SDS011;27947;47.556;18.718;2023-05-18T06:02:24;5.35;;;3.40;;
42294;SDS011;27947;47.556;18.718;2023-05-18T06:04:50;5.65;;;3.35;;
42294;SDS011;27947;47.556;18.718;2023-05-18T06:07:16;5.47;;;3.33;;
42294;SDS011;27947;47.556;18.718;2023-05-18T06:09:41;5.63;;;3.42;;
42294;SDS011;27947;47.556;18.718;2023-05-18T06:12:07;4.53;;;3.10;;
42294;SDS011;27947;47.556;18.718;2023-05-18T06:14:33;5.05;;;3.40;;
42294;SDS011;27947;47.556;18.718;2023-05-18T06:16:58;6.47;;;3.22;;
42294;SDS011;27947;47.556;18.718;2023-05-18T06:19:24;4.38;;;3.35;;
42294;SDS011;27947;47.556;18.718;2023-05-18T06:21:50;3.80;;;3.10;;
42294;SDS011;27947;47.556;18.718;2023-05-18T06:24:15;3.53;;;2.95;;
42294;SDS011;27947;47.556;18.718;2023-05-18T06:26:50;5.43;;;3.05;;
42294;SDS011;27947;47.556;18.718;2023-05-18T06:29:34;4.57;;;3.17;;
42294;SDS011;27947;47.556;18.718;2023-05-18T06:32:13;6.40;;;2.90;;
42294;SDS011;27947;47.556;18.718;2023-05-18T06:34:41;4.45;;;3.08;;
42294;SDS011;27947;47.556;18.718;2023-05-18T06:37:09;3.97;;;2.95;;
42294;SDS011;27947;47.556;18.718;2023-05-18T06:39:35;4.93;;;3.13;;
42294;SDS011;27947;47.556;18.718;2023-05-18T06:42:01;3.55;;;3.05;;
42294;SDS011;27947;47.556;18.718;2023-05-18T06:44:31;4.68;;;3.17;;
42294;SDS011;27947;47.556;18.718;2023-05-18T06:47:09;4.40;;;3.03;;
42294;SDS011;27947;47.556;18.718;2023-05-18T06:49:34;3.67;;;2.40;;
42294;SDS011;27947;47.556;18.718;2023-05-18T06:52:00;7.15;;;3.40;;
42294;SDS011;27947;47.556;18.718;2023-05-18T06:54:25;4.15;;;2.97;;
42294;SDS011;27947;47.556;18.718;2023-05-18T06:56:53;5.40;;;3.03;;
42294;SDS011;27947;47.556;18.718;2023-05-18T06:59:19;5.20;;;2.78;;
42294;SDS011;27947;47.556;18.718;2023-05-18T07:01:45;3.47;;;2.90;;
42294;SDS011;27947;47.556;18.718;2023-05-18T07:04:11;6.60;;;2.97;;
42294;SDS011;27947;47.556;18.718;2023-05-18T07:06:36;3.40;;;2.50;;
42294;SDS011;27947;47.556;18.718;2023-05-18T07:09:02;3.45;;;2.83;;
42294;SDS011;27947;47.556;18.718;2023-05-18T07:11:28;3.15;;;2.30;;
42294;SDS011;27947;47.556;18.718;2023-05-18T07:13:53;3.50;;;2.30;;
42294;SDS011;27947;47.556;18.718;2023-05-18T07:16:19;3.03;;;2.20;;
42294;SDS011;27947;47.556;18.718;2023-05-18T07:18:44;2.67;;;2.15;;
42294;SDS011;27947;47.556;18.718;2023-05-18T07:21:09;2.50;;;2.03;;
42294;SDS011;27947;47.556;18.718;2023-05-18T07:23:35;3.60;;;2.20;;
42294;SDS011;27947;47.556;18.718;2023-05-18T07:26:00;2.83;;;2.30;;
42294;SDS011;27947;47.556;18.718;2023-05-18T07:28:26;2.85;;;2.10;;
42294;SDS011;27947;47.556;18.718;2023-05-18T07:30:51;3.10;;;2.33;;
42294;SDS011;27947;47.556;18.718;2023-05-18T07:33:16;3.22;;;2.40;;
42294;SDS011;27947;47.556;18.718;2023-05-18T07:35:42;2.97;;;2.55;;
42294;SDS011;27947;47.556;18.718;2023-05-18T07:38:07;6.82;;;2.40;;
42294;SDS011;27947;47.556;18.718;2023-05-18T07:40:33;6.45;;;2.75;;
42294;SDS011;27947;47.556;18.718;2023-05-18T07:42:58;4.18;;;2.47;;
42294;SDS011;27947;47.556;18.718;2023-05-18T07:45:23;4.35;;;2.55;;
42294;SDS011;27947;47.556;18.718;2023-05-18T07:47:49;3.05;;;2.58;;
42294;SDS011;27947;47.556;18.718;2023-05-18T07:50:14;2.90;;;2.33;;
42294;SDS011;27947;47.556;18.718;2023-05-18T07:52:39;7.93;;;2.90;;
42294;SDS011;27947;47.556;18.718;2023-05-18T07:55:05;4.05;;;2.42;;
42294;SDS011;27947;47.556;18.718;2023-05-18T07:57:30;4.20;;;2.50;;
42294;SDS011;27947;47.556;18.718;2023-05-18T07:59:56;3.08;;;2.40;;
42294;SDS011;27947;47.556;18.718;2023-05-18T08:02:21;2.45;;;2.13;;
42294;SDS011;27947;47.556;18.718;2023-05-18T08:04:47;2.67;;;2.17;;
42294;SDS011;27947;47.556;18.718;2023-05-18T08:07:13;4.43;;;2.15;;
42294;SDS011;27947;47.556;18.718;2023-05-18T08:09:38;6.55;;;2.08;;
42294;SDS011;27947;47.556;18.718;2023-05-18T08:12:04;2.28;;;1.92;;
42294;SDS011;27947;47.556;18.718;2023-05-18T08:14:30;2.10;;;1.58;;
42294;SDS011;27947;47.556;18.718;2023-05-18T08:16:55;5.72;;;1.88;;
42294;SDS011;27947;47.556;18.718;2023-05-18T08:19:21;2.38;;;1.70;;
42294;SDS011;27947;47.556;18.718;2023-05-18T08:21:46;3.03;;;2.13;;
42294;SDS011;27947;47.556;18.718;2023-05-18T08:24:11;3.20;;;1.60;;
42294;SDS011;27947;47.556;18.718;2023-05-18T08:26:36;2.20;;;1.60;;
42294;SDS011;27947;47.556;18.718;2023-05-18T08:29:02;2.40;;;1.60;;
42294;SDS011;27947;47.556;18.718;2023-05-18T08:31:34;2.38;;;1.88;;
42294;SDS011;27947;47.556;18.718;2023-05-18T08:33:59;2.60;;;2.00;;
42294;SDS011;27947;47.556;18.718;2023-05-18T08:36:25;2.03;;;1.73;;
42294;SDS011;27947;47.556;18.718;2023-05-18T08:38:51;2.63;;;2.10;;
42294;SDS011;27947;47.556;18.718;2023-05-18T08:41:22;3.58;;;2.47;;
42294;SDS011;27947;47.556;18.718;2023-05-18T08:44:08;2.75;;;1.80;;
42294;SDS011;27947;47.556;18.718;2023-05-18T08:46:39;2.80;;;1.98;;
42294;SDS011;27947;47.556;18.718;2023-05-18T08:49:05;3.05;;;2.10;;
42294;SDS011;27947;47.556;18.718;2023-05-18T08:51:32;4.40;;;2.83;;
42294;SDS011;27947;47.556;18.718;2023-05-18T08:53:58;3.47;;;2.70;;
42294;SDS011;27947;47.556;18.718;2023-05-18T08:56:24;3.50;;;2.85;;
42294;SDS011;27947;47.556;18.718;2023-05-18T08:58:56;3.00;;;2.45;;
42294;SDS011;27947;47.556;18.718;2023-05-18T09:01:25;3.20;;;2.75;;
42294;SDS011;27947;47.556;18.718;2023-05-18T09:03:54;5.82;;;3.22;;
42294;SDS011;27947;47.556;18.718;2023-05-18T09:06:20;3.90;;;3.35;;
42294;SDS011;27947;47.556;18.718;2023-05-18T09:08:48;3.78;;;3.38;;
42294;SDS011;27947;47.556;18.718;2023-05-18T09:11:15;4.68;;;3.45;;
42294;SDS011;27947;47.556;18.718;2023-05-18T09:13:41;5.43;;;3.10;;
42294;SDS011;27947;47.556;18.718;2023-05-18T09:16:07;4.32;;;3.42;;
42294;SDS011;27947;47.556;18.718;2023-05-18T09:18:32;4.97;;;3.42;;
42294;SDS011;27947;47.556;18.718;2023-05-18T09:20:58;4.88;;;3.50;;
42294;SDS011;27947;47.556;18.718;2023-05-18T09:23:23;4.07;;;3.50;;
42294;SDS011;27947;47.556;18.718;2023-05-18T09:25:48;5.28;;;3.20;;
42294;SDS011;27947;47.556;18.718;2023-05-18T09:28:24;8.32;;;3.10;;
42294;SDS011;27947;47.556;18.718;2023-05-18T09:30:50;3.42;;;2.92;;
42294;SDS011;27947;47.556;18.718;2023-05-18T09:33:17;4.20;;;3.00;;
42294;SDS011;27947;47.556;18.718;2023-05-18T09:35:45;5.97;;;2.90;;
42294;SDS011;27947;47.556;18.718;2023-05-18T09:38:11;4.38;;;2.67;;
42294;SDS011;27947;47.556;18.718;2023-05-18T09:40:42;3.97;;;2.92;;
42294;SDS011;27947;47.556;18.718;2023-05-18T09:43:08;4.32;;;2.67;;
42294;SDS011;27947;47.556;18.718;2023-05-18T09:45:33;3.42;;;2.80;;
42294;SDS011;27947;47.556;18.718;2023-05-18T09:48:04;2.88;;;2.58;;
42294;SDS011;27947;47.556;18.718;2023-05-18T09:50:31;6.53;;;3.15;;
42294;SDS011;27947;47.556;18.718;2023-05-18T09:52:56;3.40;;;2.72;;
42294;SDS011;27947;47.556;18.718;2023-05-18T09:55:22;5.95;;;2.65;;
42294;SDS011;27947;47.556;18.718;2023-05-18T09:57:48;4.10;;;2.47;;
42294;SDS011;27947;47.556;18.718;2023-05-18T10:00:14;4.22;;;2.40;;
42294;SDS011;27947;47.556;18.718;2023-05-18T10:02:41;6.15;;;2.22;;
42294;SDS011;27947;47.556;18.718;2023-05-18T10:05:26;3.20;;;2.40;;
42294;SDS011;27947;47.556;18.718;2023-05-18T10:07:52;4.97;;;2.70;;
42294;SDS011;27947;47.556;18.718;2023-05-18T10:10:19;4.50;;;2.30;;
42294;SDS011;27947;47.556;18.718;2023-05-18T10:12:45;4.35;;;2.28;;
42294;SDS011;27947;47.556;18.718;2023-05-18T10:15:14;2.85;;;2.35;;
42294;SDS011;27947;47.556;18.718;2023-05-18T10:17:40;4.20;;;2.10;;
42294;SDS011;27947;47.556;18.718;2023-05-18T10:20:07;3.20;;;2.40;;
42294;SDS011;27947;47.556;18.718;2023-05-18T10:22:36;4.28;;;2.10;;
42294;SDS011;27947;47.556;18.718;2023-05-18T10:25:02;4.50;;;2.42;;
42294;SDS011;27947;47.556;18.718;2023-05-18T10:27:28;2.30;;;1.85;;
42294;SDS011;27947;47.556;18.718;2023-05-18T10:29:57;3.00;;;2.10;;
42294;SDS011;27947;47.556;18.718;2023-05-18T10:32:23;2.72;;;1.80;;
42294;SDS011;27947;47.556;18.718;2023-05-18T10:34:50;4.43;;;1.88;;
42294;SDS011;27947;47.556;18.718;2023-05-18T10:37:16;4.55;;;2.00;;
42294;SDS011;27947;47.556;18.718;2023-05-18T10:39:43;2.10;;;1.77;;
42294;SDS011;27947;47.556;18.718;2023-05-18T10:42:09;2.03;;;1.67;;
42294;SDS011;27947;47.556;18.718;2023-05-18T10:44:39;3.67;;;1.67;;
42294;SDS011;27947;47.556;18.718;2023-05-18T10:47:04;4.10;;;1.73;;
42294;SDS011;27947;47.556;18.718;2023-05-18T10:49:30;2.92;;;1.95;;
42294;SDS011;27947;47.556;18.718;2023-05-18T10:51:56;2.92;;;1.92;;
42294;SDS011;27947;47.556;18.718;2023-05-18T10:54:23;5.90;;;1.40;;
42294;SDS011;27947;47.556;18.718;2023-05-18T10:56:50;2.42;;;1.45;;
42294;SDS011;27947;47.556;18.718;2023-05-18T10:59:16;1.60;;;1.20;;
42294;SDS011;27947;47.556;18.718;2023-05-18T11:01:42;10.50;;;1.95;;
42294;SDS011;27947;47.556;18.718;2023-05-18T11:04:08;4.18;;;1.75;;
42294;SDS011;27947;47.556;18.718;2023-05-18T11:06:34;4.15;;;2.00;;
42294;SDS011;27947;47.556;18.718;2023-05-18T11:09:00;3.60;;;1.50;;
42294;SDS011;27947;47.556;18.718;2023-05-18T11:11:26;4.28;;;1.75;;
42294;SDS011;27947;47.556;18.718;2023-05-18T11:13:57;1.50;;;1.27;;
42294;SDS011;27947;47.556;18.718;2023-05-18T11:16:24;1.95;;;1.38;;
42294;SDS011;27947;47.556;18.718;2023-05-18T11:18:56;8.35;;;3.25;;
42294;SDS011;27947;47.556;18.718;2023-05-18T11:21:30;8.10;;;2.20;;
42294;SDS011;27947;47.556;18.718;2023-05-18T11:24:29;2.25;;;1.48;;
42294;SDS011;27947;47.556;18.718;2023-05-18T11:26:59;1.60;;;1.47;;
42294;SDS011;27947;47.556;18.718;2023-05-18T11:29:36;3.13;;;1.42;;
42294;SDS011;27947;47.556;18.718;2023-05-18T11:32:19;18.20;;;2.30;;
42294;SDS011;27947;47.556;18.718;2023-05-18T11:34:45;2.92;;;1.60;;
42294;SDS011;27947;47.556;18.718;2023-05-18T11:37:14;3.85;;;1.50;;
42294;SDS011;27947;47.556;18.718;2023-05-18T11:39:40;2.22;;;1.58;;
42294;SDS011;27947;47.556;18.718;2023-05-18T11:44:31;2.00;;;1.60;;
42294;SDS011;27947;47.556;18.718;2023-05-18T11:49:26;2.58;;;1.75;;
42294;SDS011;27947;47.556;18.718;2023-05-18T11:54:27;3.10;;;1.58;;
42294;SDS011;27947;47.556;18.718;2023-05-18T11:56:52;4.10;;;1.73;;
42294;SDS011;27947;47.556;18.718;2023-05-18T11:59:28;3.75;;;1.35;;
42294;SDS011;27947;47.556;18.718;2023-05-18T12:01:55;2.80;;;1.60;;
42294;SDS011;27947;47.556;18.718;2023-05-18T12:04:22;2.85;;;1.35;;
42294;SDS011;27947;47.556;18.718;2023-05-18T12:06:48;3.25;;;1.65;;
42294;SDS011;27947;47.556;18.718;2023-05-18T12:09:13;4.18;;;1.50;;
42294;SDS011;27947;47.556;18.718;2023-05-18T12:11:39;3.90;;;1.70;;
42294;SDS011;27947;47.556;18.718;2023-05-18T12:14:05;3.22;;;1.60;;
42294;SDS011;27947;47.556;18.718;2023-05-18T12:16:31;2.55;;;2.00;;
42294;SDS011;27947;47.556;18.718;2023-05-18T12:18:57;2.45;;;1.70;;
42294;SDS011;27947;47.556;18.718;2023-05-18T12:21:22;2.78;;;1.63;;
42294;SDS011;27947;47.556;18.718;2023-05-18T12:23:56;1.92;;;1.60;;
42294;SDS011;27947;47.556;18.718;2023-05-18T12:26:21;1.80;;;1.45;;
42294;SDS011;27947;47.556;18.718;2023-05-18T12:28:50;7.50;;;1.65;;
42294;SDS011;27947;47.556;18.718;2023-05-18T12:31:16;2.65;;;1.33;;
42294;SDS011;27947;47.556;18.718;2023-05-18T12:33:41;7.18;;;1.65;;
42294;SDS011;27947;47.556;18.718;2023-05-18T12:36:11;5.90;;;1.50;;
42294;SDS011;27947;47.556;18.718;2023-05-18T12:38:37;2.08;;;1.88;;
42294;SDS011;27947;47.556;18.718;2023-05-18T12:41:02;3.35;;;2.20;;
42294;SDS011;27947;47.556;18.718;2023-05-18T12:43:31;3.70;;;1.85;;
42294;SDS011;27947;47.556;18.718;2023-05-18T12:45:59;3.33;;;1.85;;
42294;SDS011;27947;47.556;18.718;2023-05-18T12:48:24;5.47;;;2.28;;
42294;SDS011;27947;47.556;18.718;2023-05-18T12:50:50;3.17;;;2.10;;
42294;SDS011;27947;47.556;18.718;2023-05-18T12:53:16;2.00;;;1.80;;
42294;SDS011;27947;47.556;18.718;2023-05-18T12:55:41;6.95;;;2.00;;
42294;SDS011;27947;47.556;18.718;2023-05-18T12:58:14;5.50;;;1.92;;
42294;SDS011;27947;47.556;18.718;2023-05-18T13:00:46;2.47;;;1.80;;
42294;SDS011;27947;47.556;18.718;2023-05-18T13:03:12;1.92;;;1.63;;
42294;SDS011;27947;47.556;18.718;2023-05-18T13:05:38;6.72;;;2.10;;
42294;SDS011;27947;47.556;18.718;2023-05-18T13:08:05;3.67;;;2.13;;
42294;SDS011;27947;47.556;18.718;2023-05-18T13:10:30;2.50;;;2.22;;
42294;SDS011;27947;47.556;18.718;2023-05-18T13:12:56;2.47;;;2.25;;
42294;SDS011;27947;47.556;18.718;2023-05-18T13:15:27;2.70;;;1.83;;
42294;SDS011;27947;47.556;18.718;2023-05-18T13:17:57;2.70;;;1.95;;
42294;SDS011;27947;47.556;18.718;2023-05-18T13:20:23;4.07;;;2.10;;
42294;SDS011;27947;47.556;18.718;2023-05-18T13:22:53;2.60;;;2.10;;
42294;SDS011;27947;47.556;18.718;2023-05-18T13:25:20;2.70;;;2.05;;
42294;SDS011;27947;47.556;18.718;2023-05-18T13:27:45;3.00;;;1.80;;
42294;SDS011;27947;47.556;18.718;2023-05-18T13:30:12;3.90;;;2.00;;
42294;SDS011;27947;47.556;18.718;2023-05-18T13:32:38;5.10;;;2.47;;
42294;SDS011;27947;47.556;18.718;2023-05-18T13:35:04;4.55;;;2.50;;
42294;SDS011;27947;47.556;18.718;2023-05-18T13:37:29;3.80;;;2.20;;
42294;SDS011;27947;47.556;18.718;2023-05-18T13:39:55;2.20;;;2.00;;
42294;SDS011;27947;47.556;18.718;2023-05-18T13:42:20;4.45;;;2.50;;
42294;SDS011;27947;47.556;18.718;2023-05-18T13:44:46;8.18;;;2.25;;
42294;SDS011;27947;47.556;18.718;2023-05-18T13:47:11;3.40;;;2.00;;
42294;SDS011;27947;47.556;18.718;2023-05-18T13:49:37;2.28;;;2.03;;
42294;SDS011;27947;47.556;18.718;2023-05-18T13:52:02;4.45;;;2.05;;
42294;SDS011;27947;47.556;18.718;2023-05-18T13:54:28;7.90;;;2.25;;
42294;SDS011;27947;47.556;18.718;2023-05-18T13:56:53;3.50;;;1.83;;
42294;SDS011;27947;47.556;18.718;2023-05-18T13:59:18;3.88;;;1.92;;
42294;SDS011;27947;47.556;18.718;2023-05-18T14:01:46;5.57;;;2.10;;
42294;SDS011;27947;47.556;18.718;2023-05-18T14:04:11;4.28;;;1.83;;
42294;SDS011;27947;47.556;18.718;2023-05-18T14:06:37;4.25;;;1.63;;
42294;SDS011;27947;47.556;18.718;2023-05-18T14:09:02;5.07;;;1.77;;
42294;SDS011;27947;47.556;18.718;2023-05-18T14:11:27;1.75;;;1.60;;
42294;SDS011;27947;47.556;18.718;2023-05-18T14:13:53;3.10;;;2.55;;
42294;SDS011;27947;47.556;18.718;2023-05-18T14:16:18;4.70;;;1.73;;
42294;SDS011;27947;47.556;18.718;2023-05-18T14:18:44;1.92;;;1.55;;
42294;SDS011;27947;47.556;18.718;2023-05-18T14:21:09;2.22;;;1.90;;
42294;SDS011;27947;47.556;18.718;2023-05-18T14:23:34;3.05;;;1.95;;
42294;SDS011;27947;47.556;18.718;2023-05-18T14:26:00;5.13;;;1.75;;
42294;SDS011;27947;47.556;18.718;2023-05-18T14:28:25;2.28;;;1.70;;
42294;SDS011;27947;47.556;18.718;2023-05-18T14:30:50;3.08;;;1.65;;
42294;SDS011;27947;47.556;18.718;2023-05-18T14:33:16;2.75;;;1.73;;
42294;SDS011;27947;47.556;18.718;2023-05-18T14:35:41;5.03;;;2.15;;
42294;SDS011;27947;47.556;18.718;2023-05-18T14:38:06;2.95;;;1.80;;
42294;SDS011;27947;47.556;18.718;2023-05-18T14:40:32;3.13;;;1.77;;
42294;SDS011;27947;47.556;18.718;2023-05-18T14:42:57;2.70;;;1.70;;
42294;SDS011;27947;47.556;18.718;2023-05-18T14:45:22;1.90;;;1.67;;